createdAt,value
2019-04-21T00:00:53.370Z,96332.65
2019-04-21T00:03:23.489Z,96049.81
2019-04-21T00:06:08.848Z,96326.52
2019-04-21T00:11:09.350Z,96335.60
2019-04-21T00:13:32.558Z,96343.08
2019-04-21T00:15:57.342Z,96342.77
2019-04-21T00:18:57.493Z,96345.44
2019-04-21T00:21:29.127Z,96350.48
2019-04-21T00:24:20.216Z,96351.00
2019-04-21T00:26:58.992Z,96351.53
2019-04-21T00:29:33.901Z,96343.00
2019-04-21T00:31:58.925Z,96338.48
2019-04-21T00:34:15.407Z,96339.81
2019-04-21T00:36:57.369Z,96338.98
2019-04-21T00:39:45.031Z,96342.20
2019-04-21T00:42:08.614Z,96339.07
2019-04-21T00:44:29.443Z,96336.67
2019-04-21T00:47:05.418Z,96343.88
2019-04-21T00:49:43.148Z,96331.06
2019-04-21T00:53:08.289Z,96338.80
2019-04-21T00:56:01.531Z,96338.80
2019-04-21T00:58:26.878Z,96334.80
2019-04-21T01:00:51.081Z,96331.05
2019-04-21T01:03:26.532Z,96331.61
2019-04-21T01:06:10.020Z,96328.13
2019-04-21T01:08:30.257Z,96321.94
2019-04-21T01:10:47.361Z,96322.19
2019-04-21T01:16:00.783Z,96332.11
2019-04-21T01:18:31.445Z,96334.80
2019-04-21T01:20:39.266Z,96331.59
2019-04-21T01:23:08.613Z,96329.72
2019-04-21T01:25:44.880Z,96323.86
2019-04-21T01:28:25.810Z,96320.89
2019-04-21T01:30:57.359Z,96319.83
2019-04-21T01:33:34.912Z,96315.83
2019-04-21T01:35:59.339Z,96314.24
2019-04-21T01:41:06.969Z,96305.95
2019-04-21T01:43:33.489Z,96297.42
2019-04-21T01:46:06.667Z,96304.87
2019-04-21T01:48:37.171Z,96287.27
2019-04-21T01:51:07.583Z,96287.27
2019-04-21T01:53:48.638Z,96301.40
2019-04-21T01:56:41.864Z,96297.91
2019-04-21T01:58:59.222Z,96289.61
2019-04-21T02:01:39.103Z,96288.80
2019-04-21T02:04:23.041Z,96277.56
2019-04-21T02:06:45.623Z,96287.20
2019-04-21T02:09:12.900Z,96290.95
2019-04-21T02:11:50.702Z,96296.33
2019-04-21T02:14:17.603Z,96290.42
2019-04-21T02:16:50.963Z,96286.16
2019-04-21T02:19:12.586Z,96281.36
2019-04-21T02:21:43.666Z,96292.86
2019-04-21T02:24:31.656Z,96293.95
2019-04-21T02:26:53.863Z,96289.13
2019-04-21T02:29:27.992Z,96273.11
2019-04-21T02:32:11.375Z,96273.11
2019-04-21T02:34:44.704Z,96279.00
2019-04-21T02:37:30.876Z,96279.25
2019-04-21T02:39:44.365Z,96275.24
2019-04-21T02:44:46.266Z,96278.17
2019-04-21T02:47:05.179Z,96283.79
2019-04-21T02:52:27.411Z,96282.98
2019-04-21T02:57:19.015Z,96277.09
2019-04-21T03:00:06.518Z,96278.16
2019-04-21T03:05:42.433Z,96280.27
2019-04-21T03:08:11.208Z,96278.12
2019-04-21T03:10:51.772Z,96281.36
2019-04-21T03:13:13.871Z,96276.30
2019-04-21T03:15:59.205Z,96276.82
2019-04-21T03:23:19.187Z,96276.28
2019-04-21T03:26:03.504Z,96280.83
2019-04-21T03:28:14.035Z,96281.63
2019-04-21T03:31:11.775Z,96281.92
2019-04-21T03:36:13.093Z,96282.37
2019-04-21T03:38:21.765Z,96274.07
2019-04-21T03:40:52.810Z,96272.67
2019-04-21T03:45:56.903Z,96273.98
2019-04-21T03:48:27.229Z,96267.59
2019-04-21T03:51:12.192Z,96261.69
2019-04-21T03:53:24.941Z,96263.56
2019-04-21T03:58:41.429Z,96261.42
2019-04-21T04:01:38.694Z,96263.55
2019-04-21T04:04:11.603Z,96269.97
2019-04-21T04:06:48.857Z,96267.84
2019-04-21T04:09:40.019Z,96266.02
2019-04-21T04:14:26.666Z,96265.95
2019-04-21T04:17:04.684Z,96269.87
2019-04-21T04:19:26.280Z,96266.70
2019-04-21T04:24:34.074Z,96272.41
2019-04-21T04:27:02.538Z,96263.30
2019-04-21T04:29:24.157Z,96262.84
2019-04-21T04:32:16.483Z,96263.67
2019-04-21T04:34:49.858Z,96266.94
2019-04-21T04:37:30.355Z,96257.97
2019-04-21T04:40:00.582Z,96259.34
2019-04-21T04:45:15.088Z,96264.28
2019-04-21T04:47:32.830Z,96268.03
2019-04-21T04:50:22.537Z,96265.23
2019-04-21T04:57:49.215Z,96260.77
2019-04-21T05:12:46.025Z,96261.10
2019-04-21T05:17:48.356Z,96258.74
2019-04-21T05:20:15.807Z,96254.64
2019-04-21T05:22:42.757Z,96248.94
2019-04-21T05:25:08.357Z,96253.61
2019-04-21T05:27:43.819Z,96257.02
2019-04-21T05:33:05.386Z,96258.93
2019-04-21T05:36:04.679Z,96252.75
2019-04-21T05:38:57.011Z,96253.12
2019-04-21T05:41:18.140Z,96249.02
2019-04-21T05:43:57.513Z,96250.69
2019-04-21T05:46:32.246Z,96247.80
2019-04-21T05:49:02.909Z,96244.45
2019-04-21T05:51:31.779Z,96248.27
2019-04-21T05:54:14.992Z,96251.08
2019-04-21T05:56:46.473Z,96242.92
2019-04-21T05:59:07.839Z,96240.15
2019-04-21T06:02:09.006Z,96242.68
2019-04-21T06:04:26.504Z,96243.98
2019-04-21T06:06:53.804Z,96240.38
2019-04-21T06:09:19.746Z,96246.16
2019-04-21T06:11:50.793Z,96239.85
2019-04-21T06:14:25.153Z,96235.95
2019-04-21T06:16:56.971Z,96230.59
2019-04-21T06:19:22.564Z,96230.69
2019-04-21T06:21:51.254Z,96231.45
2019-04-21T06:24:20.512Z,96236.25
2019-04-21T06:29:34.749Z,96236.58
2019-04-21T06:34:40.755Z,96226.58
2019-04-21T06:42:32.508Z,96221.56
2019-04-21T06:45:05.967Z,96214.70
2019-04-21T06:47:42.127Z,96214.19
2019-04-21T06:50:01.878Z,96211.58
2019-04-21T06:55:10.286Z,96218.25
2019-04-21T06:57:41.840Z,96223.47
2019-04-21T07:00:10.378Z,96221.52
2019-04-21T07:05:15.480Z,96060.77
2019-04-21T07:07:43.404Z,96218.10
2019-04-21T07:10:14.310Z,96222.51
2019-04-21T07:12:48.294Z,96225.61
2019-04-21T07:15:18.006Z,96220.05
2019-04-21T07:17:45.384Z,96218.59
2019-04-21T07:20:18.827Z,96210.34
2019-04-21T07:25:22.141Z,96202.51
2019-04-21T07:27:56.735Z,96202.52
2019-04-21T07:30:26.673Z,96205.72
2019-04-21T07:33:07.305Z,96205.70
2019-04-21T07:35:28.836Z,96208.20
2019-04-21T07:37:58.000Z,96206.17
2019-04-21T07:40:24.707Z,96203.05
2019-04-21T07:42:55.678Z,96199.59
2019-04-21T07:45:22.694Z,96198.08
2019-04-21T07:48:11.045Z,96199.83
2019-04-21T07:51:00.824Z,96198.95
2019-04-21T07:53:38.652Z,96194.32
2019-04-21T07:55:46.862Z,96185.33
2019-04-21T07:58:40.441Z,96193.94
2019-04-21T08:01:05.641Z,96178.64
2019-04-21T08:03:41.082Z,96178.32
2019-04-21T08:06:12.303Z,96172.95
2019-04-21T08:08:34.273Z,96170.84
2019-04-21T08:11:10.861Z,96169.65
2019-04-21T08:13:50.276Z,96159.20
2019-04-21T08:16:10.860Z,96161.57
2019-04-21T08:18:47.236Z,96157.98
2019-04-21T08:21:11.084Z,96157.23
2019-04-21T08:23:43.465Z,96160.88
2019-04-21T08:26:17.107Z,96154.53
2019-04-21T08:28:52.385Z,96153.97
2019-04-21T08:31:25.768Z,96152.13
2019-04-21T08:33:55.704Z,96147.19
2019-04-21T08:36:24.564Z,96148.23
2019-04-21T08:38:54.514Z,96145.87
2019-04-21T08:41:27.723Z,96143.80
2019-04-21T08:43:51.403Z,96140.27
2019-04-21T08:46:24.951Z,96133.20
2019-04-21T08:48:55.419Z,96131.38
2019-04-21T08:54:04.129Z,96131.20
2019-04-21T08:57:01.182Z,96125.43
2019-04-21T09:02:29.451Z,96111.14
2019-04-21T09:04:56.730Z,96107.93
2019-04-21T09:07:32.116Z,96103.42
2019-04-21T09:09:57.757Z,96098.97
2019-04-21T09:12:29.097Z,96098.14
2019-04-21T09:15:03.104Z,96090.14
2019-04-21T09:17:27.694Z,96082.58
2019-04-21T09:20:09.708Z,96085.28
2019-04-21T09:22:30.231Z,96072.52
2019-04-21T09:25:05.505Z,96068.56
2019-04-21T09:27:37.828Z,96071.97
2019-04-21T09:29:55.889Z,96065.70
2019-04-21T09:32:25.744Z,96072.94
2019-04-21T09:34:53.442Z,96066.30
2019-04-21T09:37:36.680Z,96059.63
2019-04-21T09:39:57.381Z,96053.45
2019-04-21T09:42:33.286Z,96052.66
2019-04-21T09:45:00.577Z,96046.09
2019-04-21T09:47:35.186Z,96044.78
2019-04-21T09:50:01.812Z,96041.88
2019-04-21T09:52:44.311Z,96044.73
2019-04-21T09:55:11.753Z,96036.16
2019-04-21T09:57:44.298Z,96029.89
2019-04-21T10:00:13.156Z,96024.16
2019-04-21T10:02:48.221Z,96024.31
2019-04-21T10:05:10.270Z,96015.13
2019-04-21T10:07:42.276Z,96015.20
2019-04-21T10:10:10.992Z,96018.89
2019-04-21T10:12:41.104Z,96008.98
2019-04-21T10:15:10.713Z,96006.05
2019-04-21T10:17:47.448Z,96008.30
2019-04-21T10:20:17.188Z,96003.30
2019-04-21T10:22:46.873Z,95994.97
2019-04-21T10:25:16.782Z,95985.25
2019-04-21T10:27:47.180Z,95982.24
2019-04-21T10:30:20.291Z,95977.06
2019-04-21T10:32:50.207Z,95976.70
2019-04-21T10:35:21.805Z,95978.34
2019-04-21T10:38:05.333Z,95969.63
2019-04-21T10:40:21.869Z,95961.23
2019-04-21T10:42:52.273Z,95965.81
2019-04-21T10:45:22.991Z,95952.48
2019-04-21T10:47:52.861Z,95948.00
2019-04-21T10:50:22.680Z,95950.12
2019-04-21T10:53:00.899Z,95949.17
2019-04-21T10:55:44.403Z,95943.06
2019-04-21T10:58:10.818Z,95942.12
2019-04-21T11:00:42.061Z,95936.91
2019-04-21T11:03:29.267Z,95929.53
2019-04-21T11:05:59.006Z,95930.97
2019-04-21T11:08:35.433Z,95926.23
2019-04-21T11:10:59.698Z,95925.63
2019-04-21T11:13:30.585Z,95921.72
2019-04-21T11:16:01.346Z,95924.34
2019-04-21T11:18:31.650Z,95916.22
2019-04-21T11:21:02.848Z,95914.30
2019-04-21T11:23:33.197Z,95907.91
2019-04-21T11:26:06.479Z,95914.28
2019-04-21T11:28:36.820Z,95912.39
2019-04-21T11:31:07.036Z,95909.62
2019-04-21T11:33:37.611Z,95904.14
2019-04-21T11:36:07.152Z,95899.69
2019-04-21T11:38:58.089Z,95901.20
2019-04-21T11:41:13.879Z,95905.06
2019-04-21T11:43:46.497Z,95897.83
2019-04-21T11:46:16.430Z,95899.29
2019-04-21T11:48:46.154Z,95904.95
2019-04-21T11:51:15.682Z,95892.08
2019-04-21T11:53:46.495Z,95895.02
2019-04-21T11:56:16.830Z,95891.92
2019-04-21T11:58:47.715Z,95897.84
2019-04-21T12:01:17.941Z,95887.06
2019-04-21T12:03:47.600Z,95890.19
2019-04-21T12:06:17.469Z,95884.95
2019-04-21T12:08:49.919Z,95885.87
2019-04-21T12:11:18.147Z,95877.82
2019-04-21T12:13:48.037Z,95883.22
2019-04-21T12:16:17.467Z,95878.15
2019-04-21T12:18:47.157Z,95876.70
2019-04-21T12:21:16.636Z,95869.30
2019-04-21T12:23:46.012Z,95868.36
2019-04-21T12:26:15.969Z,95859.95
2019-04-21T12:28:45.959Z,95859.95
2019-04-21T12:31:33.742Z,95855.25
2019-04-21T12:34:06.106Z,95850.25
2019-04-21T12:36:35.835Z,95855.53
2019-04-21T12:39:08.775Z,95846.91
2019-04-21T12:41:38.532Z,95845.88
2019-04-21T12:44:08.947Z,95847.03
2019-04-21T12:46:41.308Z,95838.45
2019-04-21T12:49:11.795Z,95732.94
2019-04-21T12:51:41.868Z,95841.88
2019-04-21T12:54:11.996Z,95840.96
2019-04-21T12:56:41.518Z,95833.68
2019-04-21T12:59:12.062Z,95830.16
2019-04-21T13:01:41.552Z,95835.23
2019-04-21T13:04:11.035Z,95833.25
2019-04-21T13:06:41.527Z,95820.06
2019-04-21T13:09:14.314Z,95819.39
2019-04-21T13:11:43.430Z,95821.03
2019-04-21T13:14:13.664Z,95816.94
2019-04-21T13:16:43.490Z,95810.80
2019-04-21T13:19:13.358Z,95808.70
2019-04-21T13:21:42.791Z,95802.59
2019-04-21T13:24:12.197Z,95800.59
2019-04-21T13:26:47.250Z,95803.91
2019-04-21T13:29:12.746Z,95801.09
2019-04-21T13:31:42.554Z,95796.47
2019-04-21T13:34:12.094Z,95788.66
2019-04-21T13:36:41.536Z,95788.96
2019-04-21T13:42:11.090Z,95793.38
2019-04-21T13:44:33.068Z,95787.13
2019-04-21T13:47:04.753Z,95790.48
2019-04-21T13:49:35.073Z,95782.20
2019-04-21T13:52:04.857Z,95779.83
2019-04-21T13:54:35.582Z,95779.21
2019-04-21T13:57:05.201Z,95782.73
2019-04-21T13:59:38.449Z,95781.27
2019-04-21T14:02:08.928Z,95776.33
2019-04-21T14:04:38.376Z,95766.41
2019-04-21T14:07:10.095Z,95773.38
2019-04-21T14:09:50.051Z,95765.38
2019-04-21T14:12:11.728Z,95772.97
2019-04-21T14:14:42.028Z,95766.18
2019-04-21T14:17:12.775Z,95757.03
2019-04-21T14:19:43.469Z,95751.94
2019-04-21T14:22:15.903Z,95756.77
2019-04-21T14:24:45.818Z,95757.29
2019-04-21T14:27:16.327Z,95750.50
2019-04-21T14:29:45.978Z,95749.98
2019-04-21T14:32:16.097Z,95747.42
2019-04-21T14:34:48.500Z,95747.73
2019-04-21T14:37:17.025Z,95741.38
2019-04-21T14:39:52.748Z,95743.32
2019-04-21T14:42:18.095Z,95736.69
2019-04-21T14:44:49.035Z,95737.72
2019-04-21T14:47:31.507Z,95732.22
2019-04-21T14:50:24.237Z,95734.19
2019-04-21T14:53:25.703Z,95725.37
2019-04-21T14:55:55.378Z,95726.64
2019-04-21T14:58:25.441Z,95729.95
2019-04-21T15:00:58.272Z,95727.75
2019-04-21T15:03:27.901Z,95722.25
2019-04-21T15:05:57.750Z,95729.12
2019-04-21T15:08:27.296Z,95724.04
2019-04-21T15:10:56.928Z,95726.72
2019-04-21T15:13:27.873Z,95729.50
2019-04-21T15:15:57.603Z,95733.55
2019-04-21T15:18:30.609Z,95724.31
2019-04-21T15:21:01.383Z,95724.83
2019-04-21T15:23:32.449Z,95725.17
2019-04-21T15:26:02.238Z,95723.73
2019-04-21T15:28:33.566Z,95719.57
2019-04-21T15:31:03.031Z,95717.72
2019-04-21T15:33:32.366Z,95716.21
2019-04-21T15:36:02.932Z,95710.31
2019-04-21T15:38:33.904Z,95712.61
2019-04-21T15:41:08.327Z,95701.87
2019-04-21T15:43:38.534Z,95712.78
2019-04-21T15:46:08.823Z,95705.97
2019-04-21T15:48:41.440Z,95702.63
2019-04-21T15:51:11.071Z,95701.55
2019-04-21T15:53:41.811Z,95705.41
2019-04-21T15:56:20.561Z,95701.89
2019-04-21T15:59:04.570Z,95695.68
2019-04-21T16:01:38.872Z,95698.02
2019-04-21T16:04:08.539Z,95691.78
2019-04-21T16:06:39.306Z,95692.86
2019-04-21T16:09:15.726Z,95694.00
2019-04-21T16:11:42.046Z,95688.87
2019-04-21T16:14:11.558Z,95687.80
2019-04-21T16:16:41.234Z,95680.89
2019-04-21T16:19:12.141Z,95677.52
2019-04-21T16:21:44.416Z,95682.35
2019-04-21T16:24:14.154Z,95681.81
2019-04-21T16:26:44.599Z,95679.60
2019-04-21T16:29:15.263Z,95678.30
2019-04-21T16:31:44.833Z,95677.08
2019-04-21T16:34:15.707Z,95679.94
2019-04-21T16:36:45.659Z,95679.66
2019-04-21T16:39:15.591Z,95676.73
2019-04-21T16:41:46.515Z,95677.67
2019-04-21T16:44:16.850Z,95676.31
2019-04-21T16:46:47.540Z,95673.73
2019-04-21T16:49:17.911Z,95675.94
2019-04-21T16:51:50.025Z,95669.98
2019-04-21T16:54:28.103Z,95673.35
2019-04-21T16:57:05.946Z,95674.65
2019-04-21T16:59:39.902Z,95670.84
2019-04-21T17:02:10.351Z,95673.05
2019-04-21T17:04:40.370Z,95672.76
2019-04-21T17:07:11.472Z,95674.02
2019-04-21T17:09:41.072Z,95674.76
2019-04-21T17:12:14.213Z,95678.18
2019-04-21T17:14:57.138Z,95676.86
2019-04-21T17:17:32.260Z,95684.03
2019-04-21T17:19:47.626Z,95685.32
2019-04-21T17:22:15.723Z,95684.00
2019-04-21T17:24:46.468Z,95683.14
2019-04-21T17:27:17.336Z,95685.70
2019-04-21T17:29:48.514Z,95683.61
2019-04-21T17:32:18.409Z,95683.20
2019-04-21T17:34:47.969Z,95688.71
2019-04-21T17:37:20.103Z,95691.63
2019-04-21T17:39:49.197Z,95684.86
2019-04-21T17:42:29.735Z,95681.96
2019-04-21T17:44:50.956Z,95684.93
2019-04-21T17:47:34.245Z,95685.29
2019-04-21T17:50:23.288Z,95692.31
2019-04-21T17:53:00.903Z,95693.25
2019-04-21T17:55:31.329Z,95695.17
2019-04-21T17:58:16.267Z,95696.34
2019-04-21T18:03:32.871Z,95706.39
2019-04-21T18:05:52.762Z,95705.03
2019-04-21T18:08:32.599Z,95708.80
2019-04-21T18:10:53.472Z,95707.17
2019-04-21T18:13:17.588Z,95705.94
2019-04-21T18:16:00.012Z,95705.18
2019-04-21T18:18:14.865Z,95715.50
2019-04-21T18:20:47.955Z,95711.31
2019-04-21T18:23:52.096Z,95715.30
2019-04-21T18:26:24.691Z,95729.66
2019-04-21T18:28:44.701Z,95731.02
2019-04-21T18:31:14.899Z,95727.66
2019-04-21T18:34:02.315Z,95726.40
2019-04-21T18:36:35.882Z,95731.05
2019-04-21T18:39:43.352Z,95723.36
2019-04-21T18:42:24.323Z,95728.89
2019-04-21T18:45:36.011Z,95732.37
2019-04-21T18:47:57.102Z,95737.45
2019-04-21T18:50:41.612Z,95732.16
2019-04-21T18:53:16.552Z,95734.67
2019-04-21T18:55:45.307Z,95743.45
2019-04-21T18:58:13.422Z,95740.50
2019-04-21T19:00:45.341Z,95735.30
2019-04-21T19:03:15.461Z,95744.63
2019-04-21T19:05:47.835Z,95744.72
2019-04-21T19:08:31.248Z,95753.29
2019-04-21T19:11:10.365Z,95748.73
2019-04-21T19:14:04.212Z,95754.23
2019-04-21T19:18:50.649Z,95756.67
2019-04-21T19:21:10.137Z,95756.63
2019-04-21T19:23:57.915Z,95769.55
2019-04-21T19:28:52.607Z,95761.48
2019-04-21T19:31:28.191Z,95763.83
2019-04-21T19:33:43.971Z,95761.34
2019-04-21T19:36:03.468Z,95762.04
2019-04-21T19:38:45.698Z,95758.02
2019-04-21T19:41:20.997Z,95769.70
2019-04-21T19:43:52.173Z,95766.30
2019-04-21T19:46:23.623Z,95758.92
2019-04-21T19:49:07.120Z,95761.51
2019-04-21T19:51:21.936Z,95767.12
2019-04-21T19:53:52.805Z,95763.87
2019-04-21T19:56:12.086Z,95759.45
2019-04-21T19:58:45.184Z,95751.59
2019-04-21T20:01:14.105Z,95760.50
2019-04-21T20:03:49.831Z,95754.69
2019-04-21T20:06:28.820Z,95755.03
2019-04-21T20:09:04.259Z,95752.81
2019-04-21T20:11:34.649Z,95753.25
2019-04-21T20:14:32.863Z,95751.83
2019-04-21T20:16:41.723Z,95747.07
2019-04-21T20:18:57.365Z,95745.17
2019-04-21T20:21:22.817Z,95754.80
2019-04-21T20:23:57.442Z,95750.25
2019-04-21T20:26:30.397Z,95741.95
2019-04-21T20:29:05.541Z,95744.25
2019-04-21T20:31:43.079Z,95753.41
2019-04-21T20:34:20.636Z,95753.66
2019-04-21T20:36:51.415Z,95741.72
2019-04-21T20:39:07.311Z,95747.45
2019-04-21T20:41:41.984Z,95745.77
2019-04-21T20:44:20.837Z,95753.70
2019-04-21T20:46:52.644Z,95753.64
2019-04-21T20:49:18.567Z,95750.80
2019-04-21T20:51:53.916Z,95753.02
2019-04-21T20:54:24.320Z,95765.73
2019-04-21T20:56:59.782Z,95757.09
2019-04-21T20:59:23.929Z,95755.26
2019-04-21T21:01:56.697Z,95753.59
2019-04-21T21:04:22.923Z,95757.33
2019-04-21T21:06:59.687Z,95752.12
2019-04-21T21:09:28.297Z,95755.30
2019-04-21T21:12:19.487Z,95761.09
2019-04-21T21:14:31.950Z,95754.58
2019-04-21T21:17:03.022Z,95751.56
2019-04-21T21:19:34.785Z,95751.63
2019-04-21T21:22:01.687Z,95752.19
2019-04-21T21:24:41.610Z,95754.14
2019-04-21T21:27:09.118Z,95753.27
2019-04-21T21:29:41.312Z,95751.93
2019-04-21T21:32:16.221Z,95752.11
2019-04-21T21:34:47.240Z,95751.06
2019-04-21T21:37:21.012Z,95754.55
2019-04-21T21:39:52.104Z,95757.13
2019-04-21T21:42:01.858Z,95759.73
2019-04-21T21:44:30.683Z,95752.89
2019-04-21T21:47:14.223Z,95751.94
2019-04-21T21:49:45.764Z,95752.41
2019-04-21T21:52:11.517Z,95759.75
2019-04-21T21:54:33.932Z,95756.98
2019-04-21T21:57:04.764Z,95755.78
2019-04-21T21:59:38.093Z,95752.42
2019-04-21T22:02:09.423Z,95753.55
2019-04-21T22:04:38.914Z,95759.25
2019-04-21T22:07:13.529Z,95752.59
2019-04-21T22:09:39.960Z,95748.48
2019-04-21T22:12:10.979Z,95756.10
2019-04-21T22:14:44.835Z,95749.05
2019-04-21T22:17:28.999Z,95751.86
2019-04-21T22:20:06.550Z,95749.32
2019-04-21T22:22:29.869Z,95753.50
2019-04-21T22:24:56.300Z,95756.33
2019-04-21T22:27:17.020Z,95750.47
2019-04-21T22:29:52.711Z,95750.86
2019-04-21T22:32:23.373Z,95748.71
2019-04-21T22:34:54.686Z,95743.26
2019-04-21T22:37:36.809Z,95745.16
2019-04-21T22:40:04.451Z,95742.25
2019-04-21T22:42:27.647Z,95752.54
2019-04-21T22:44:54.525Z,95754.14
2019-04-21T22:47:29.886Z,95749.28
2019-04-21T22:49:55.035Z,95748.42
2019-04-21T22:52:27.913Z,95750.27
2019-04-21T22:54:55.975Z,95747.08
2019-04-21T22:57:28.719Z,95747.94
2019-04-21T23:00:01.103Z,95743.48
2019-04-21T23:02:30.452Z,95727.61
2019-04-21T23:05:00.515Z,95727.77
2019-04-21T23:07:33.621Z,95723.25
2019-04-21T23:10:05.380Z,95727.67
2019-04-21T23:12:38.731Z,95727.55
2019-04-21T23:15:13.409Z,95730.81
2019-04-21T23:18:00.834Z,95727.99
2019-04-21T23:20:32.512Z,95725.02
2019-04-21T23:23:07.373Z,95724.28
2019-04-21T23:25:26.617Z,95723.45
2019-04-21T23:27:56.204Z,95719.34
2019-04-21T23:30:38.861Z,95719.73
2019-04-21T23:32:54.742Z,95720.34
2019-04-21T23:35:26.490Z,95723.22
2019-04-21T23:37:57.547Z,95729.47
2019-04-21T23:40:23.499Z,95723.16
2019-04-21T23:42:53.043Z,95725.56
2019-04-21T23:45:27.449Z,95721.07
2019-04-21T23:48:08.053Z,95724.55
2019-04-21T23:50:34.192Z,95721.54
2019-04-21T23:52:55.791Z,95724.29
2019-04-21T23:55:25.636Z,95716.27
2019-04-21T23:58:04.983Z,95717.86
